Time;durP1;ratioP1;P1;durP2;ratioP2;P2;SDS_P1;SDS_P2;PMS_P1;PMS_P2;Temp;Humidity;BMP_temperature;BMP_pressure;BME280_temperature;BME280_humidity;BME280_pressure;Samples;Min_cycle;Max_cycle;Signal;HPM_P1;HPM_P2
2023/01/17 00:02:11;;;;;;;2.90;1.10;;;;;;;;;;5054963;28;20116;-62
2023/01/17 00:10:18;;;;;;;6.00;1.80;;;;;;;;;;5053693;28;20395;-62
2023/01/17 00:12:47;;;;;;;3.10;1.33;;;;;;;;;;5038279;28;20029;-63
2023/01/17 00:15:13;;;;;;;1.83;1.37;;;;;;;;;;5029902;28;20160;-63
2023/01/17 00:17:40;;;;;;;15.03;2.00;;;;;;;;;;5029795;28;20521;-62
2023/01/17 01:35:19;;;;;;;2.70;1.67;;;;;;;;;;5047997;28;20127;-62
2023/01/17 01:37:46;;;;;;;1.80;1.37;;;;;;;;;;5052629;28;20029;-62
2023/01/17 01:40:13;;;;;;;1.57;0.60;;;;;;;;;;5053310;28;20040;-62
2023/01/17 01:42:50;;;;;;;1.80;1.20;;;;;;;;;;5050668;28;20029;-63
2023/01/17 01:45:18;;;;;;;1.97;1.40;;;;;;;;;;5045735;28;20480;-63
2023/01/17 01:47:45;;;;;;;4.37;1.20;;;;;;;;;;5028325;28;20044;-62
2023/01/17 01:50:12;;;;;;;2.27;1.40;;;;;;;;;;5028153;28;20473;-62
2023/01/17 01:52:41;;;;;;;2.67;1.20;;;;;;;;;;5030408;28;20387;-62
2023/01/17 01:55:11;;;;;;;1.60;1.10;;;;;;;;;;5033601;28;20037;-62
2023/01/17 01:57:40;;;;;;;7.07;2.00;;;;;;;;;;5053134;28;20025;-63
2023/01/17 02:00:15;;;;;;;0.80;0.57;;;;;;;;;;5052976;28;20037;-62
2023/01/17 02:02:41;;;;;;;;;;;;;;;;;;5053170;28;20052;-62
2023/01/17 02:05:09;;;;;;;8.17;1.57;;;;;;;;;;5050738;28;19916;-62
2023/01/17 02:07:43;;;;;;;3.47;1.63;;;;;;;;;;5047751;28;20388;-62
2023/01/17 02:10:11;;;;;;;2.55;1.35;;;;;;;;;;5047770;28;20017;-62
2023/01/17 02:12:38;;;;;;;6.00;2.13;;;;;;;;;;5047619;28;20528;-62
2023/01/17 02:15:08;;;;;;;10.47;3.17;;;;;;;;;;5038957;28;20022;-62
2023/01/17 02:17:35;;;;;;;4.43;1.53;;;;;;;;;;5032804;28;20052;-62
2023/01/17 02:20:28;;;;;;;3.77;1.70;;;;;;;;;;5032694;28;20144;-62
2023/01/17 02:23:18;;;;;;;9.07;1.93;;;;;;;;;;5032673;28;20026;-62
2023/01/17 02:25:48;;;;;;;2.87;1.43;;;;;;;;;;5038257;28;20726;-63
2023/01/17 02:28:33;;;;;;;6.30;2.20;;;;;;;;;;5048171;28;20028;-62
2023/01/17 02:31:04;;;;;;;4.63;1.20;;;;;;;;;;5047252;28;20108;-62
2023/01/17 02:33:39;;;;;;;5.63;1.80;;;;;;;;;;5045308;28;20025;-63
2023/01/17 02:36:11;;;;;;;1.25;1.05;;;;;;;;;;5046749;28;20029;-63
2023/01/17 02:38:47;;;;;;;2.20;1.33;;;;;;;;;;5035547;28;20013;-62
2023/01/17 02:41:27;;;;;;;2.53;0.87;;;;;;;;;;5032517;28;20033;-62
2023/01/17 02:43:56;;;;;;;3.37;1.73;;;;;;;;;;5031895;28;20053;-62
2023/01/17 02:46:23;;;;;;;17.27;1.63;;;;;;;;;;5037615;28;20349;-62
2023/01/17 02:48:51;;;;;;;1.77;1.20;;;;;;;;;;5050299;28;20136;-62
2023/01/17 02:51:27;;;;;;;5.23;0.93;;;;;;;;;;5030221;28;20034;-62
2023/01/17 02:54:12;;;;;;;1.57;0.87;;;;;;;;;;5027236;28;20026;-62
2023/01/17 02:56:38;;;;;;;;;;;;;;;;;;5030016;28;20124;-62
2023/01/17 02:59:05;;;;;;;1.70;1.30;;;;;;;;;;5036663;28;19913;-62
2023/01/17 03:01:35;;;;;;;1.63;1.23;;;;;;;;;;5050024;28;20029;-62
2023/01/17 03:04:01;;;;;;;2.27;1.07;;;;;;;;;;5051765;28;20495;-63
2023/01/17 03:07:03;;;;;;;1.63;1.20;;;;;;;;;;5051894;28;20487;-62
2023/01/17 03:09:31;;;;;;;3.97;1.70;;;;;;;;;;4971185;28;20034;-62
2023/01/17 03:11:59;;;;;;;8.10;1.47;;;;;;;;;;5024845;28;20037;-62
2023/01/17 03:14:25;;;;;;;1.27;1.10;;;;;;;;;;5026555;28;20036;-62
2023/01/17 03:16:52;;;;;;;2.63;0.93;;;;;;;;;;5027059;28;20096;-63
2023/01/17 03:19:19;;;;;;;5.13;1.93;;;;;;;;;;5026698;28;20120;-62
2023/01/17 03:21:46;;;;;;;3.00;1.57;;;;;;;;;;5037735;28;20503;-62
2023/01/17 03:24:12;;;;;;;1.43;0.87;;;;;;;;;;5030939;28;20028;-62
2023/01/17 03:26:43;;;;;;;0.37;0.37;;;;;;;;;;5031786;28;20025;-62
2023/01/17 03:29:10;;;;;;;0.60;0.57;;;;;;;;;;5032044;28;20033;-62
2023/01/17 03:31:37;;;;;;;1.40;1.10;;;;;;;;;;5044543;28;20024;-62
2023/01/17 03:34:04;;;;;;;2.13;1.10;;;;;;;;;;5044509;28;20029;-63
2023/01/17 03:36:31;;;;;;;6.60;2.23;;;;;;;;;;5060066;28;20037;-62
2023/01/17 03:38:57;;;;;;;0.97;0.80;;;;;;;;;;5026636;28;20379;-62
2023/01/17 03:41:24;;;;;;;1.93;1.30;;;;;;;;;;5046527;28;20021;-62
2023/01/17 03:43:51;;;;;;;3.50;1.87;;;;;;;;;;5046630;28;20417;-62
2023/01/17 03:46:30;;;;;;;2.23;0.97;;;;;;;;;;5048891;28;20029;-62
2023/01/17 03:48:57;;;;;;;9.63;1.50;;;;;;;;;;5051696;28;20111;-62
2023/01/17 03:51:23;;;;;;;1.53;1.00;;;;;;;;;;5052010;28;20370;-62
2023/01/17 03:53:50;;;;;;;3.40;1.47;;;;;;;;;;5051863;28;20033;-62
2023/01/17 03:56:17;;;;;;;5.10;1.63;;;;;;;;;;5051390;28;20040;-62
2023/01/17 03:58:44;;;;;;;1.00;0.80;;;;;;;;;;5048974;28;20029;-63
2023/01/17 04:01:11;;;;;;;0.73;0.67;;;;;;;;;;5046423;28;20037;-62
2023/01/17 04:03:38;;;;;;;0.93;0.70;;;;;;;;;;5046506;28;20037;-62
2023/01/17 04:06:05;;;;;;;3.23;1.23;;;;;;;;;;5046375;28;20086;-62
2023/01/17 04:08:31;;;;;;;1.13;0.90;;;;;;;;;;5047798;28;20021;-62
2023/01/17 04:10:58;;;;;;;1.67;1.07;;;;;;;;;;5051526;28;20039;-62
2023/01/17 04:13:25;;;;;;;1.07;0.80;;;;;;;;;;5051502;28;20021;-62
2023/01/17 04:15:51;;;;;;;3.23;1.77;;;;;;;;;;5051240;28;20467;-62
2023/01/17 04:18:19;;;;;;;3.10;1.80;;;;;;;;;;5051344;28;20538;-62
2023/01/17 04:20:46;;;;;;;4.40;1.17;;;;;;;;;;5051285;28;20033;-62
2023/01/17 04:23:12;;;;;;;3.47;2.20;;;;;;;;;;5051144;28;20024;-62
2023/01/17 04:25:39;;;;;;;6.37;2.50;;;;;;;;;;5049193;28;20028;-62
2023/01/17 04:28:06;;;;;;;1.43;1.17;;;;;;;;;;5049882;28;20032;-62
2023/01/17 04:30:32;;;;;;;1.87;1.20;;;;;;;;;;5049678;28;20036;-62
2023/01/17 04:32:59;;;;;;;2.43;1.40;;;;;;;;;;5049566;28;20086;-62
2023/01/17 04:35:26;;;;;;;1.03;0.90;;;;;;;;;;5051883;28;20054;-62
2023/01/17 04:37:52;;;;;;;2.97;1.83;;;;;;;;;;5054869;28;20029;-62
2023/01/17 04:40:19;;;;;;;0.97;0.73;;;;;;;;;;5054558;28;20090;-62
2023/01/17 04:42:46;;;;;;;6.50;1.30;;;;;;;;;;5054168;28;20021;-63
2023/01/17 04:45:13;;;;;;;0.93;0.63;;;;;;;;;;5037815;28;20021;-62
2023/01/17 04:47:40;;;;;;;2.13;1.10;;;;;;;;;;5032068;28;20025;-62
2023/01/17 04:50:07;;;;;;;2.17;1.07;;;;;;;;;;5029496;28;20018;-62
2023/01/17 04:52:33;;;;;;;1.60;1.07;;;;;;;;;;5029322;28;20025;-63
2023/01/17 04:55:00;;;;;;;3.73;1.53;;;;;;;;;;5040158;28;20032;-62
2023/01/17 04:57:27;;;;;;;6.23;1.87;;;;;;;;;;5050835;28;20031;-62
2023/01/17 04:59:53;;;;;;;3.53;2.27;;;;;;;;;;5053589;28;20040;-61
2023/01/17 05:02:20;;;;;;;3.13;1.67;;;;;;;;;;5036286;28;20168;-62
2023/01/17 05:04:47;;;;;;;7.27;2.47;;;;;;;;;;5034274;28;20032;-63
2023/01/17 05:07:14;;;;;;;4.17;1.20;;;;;;;;;;5034183;28;20036;-62
2023/01/17 05:09:42;;;;;;;1.50;1.07;;;;;;;;;;5032446;28;20436;-62
2023/01/17 05:12:09;;;;;;;4.03;1.90;;;;;;;;;;5036565;28;20035;-62
2023/01/17 05:14:36;;;;;;;3.40;2.27;;;;;;;;;;5048413;28;20107;-62
2023/01/17 05:17:02;;;;;;;1.07;0.80;;;;;;;;;;5048681;28;20021;-63
2023/01/17 05:19:29;;;;;;;2.17;1.43;;;;;;;;;;5049448;28;20510;-62
2023/01/17 05:22:02;;;;;;;1.37;1.00;;;;;;;;;;5049703;28;20456;-62
2023/01/17 05:24:30;;;;;;;2.73;1.10;;;;;;;;;;5033794;28;20037;-62
2023/01/17 05:27:02;;;;;;;2.40;1.43;;;;;;;;;;5053489;28;20025;-61
2023/01/17 05:29:29;;;;;;;7.27;2.47;;;;;;;;;;5053729;28;20036;-62
2023/01/17 05:31:56;;;;;;;1.70;1.27;;;;;;;;;;5052114;28;20021;-62
2023/01/17 05:34:23;;;;;;;6.37;2.20;;;;;;;;;;5048532;28;20096;-62
2023/01/17 05:36:49;;;;;;;4.07;2.03;;;;;;;;;;5029790;28;20427;-62
2023/01/17 05:39:16;;;;;;;2.43;1.23;;;;;;;;;;5028363;28;20029;-62
2023/01/17 05:41:43;;;;;;;2.00;1.70;;;;;;;;;;5028872;28;20029;-61
2023/01/17 05:44:10;;;;;;;3.93;2.37;;;;;;;;;;5034613;28;20025;-62
2023/01/17 05:46:37;;;;;;;2.30;1.80;;;;;;;;;;5033579;28;20097;-62
2023/01/17 05:49:04;;;;;;;1.07;0.83;;;;;;;;;;5033448;28;20029;-61
2023/01/17 05:51:30;;;;;;;1.47;1.17;;;;;;;;;;5046712;28;20096;-61
2023/01/17 05:53:57;;;;;;;2.63;1.07;;;;;;;;;;5055947;28;20376;-60
2023/01/17 05:56:24;;;;;;;1.90;1.63;;;;;;;;;;5056104;28;20101;-60
2023/01/17 05:58:51;;;;;;;2.77;1.27;;;;;;;;;;5058701;28;20024;-59
2023/01/17 06:01:18;;;;;;;1.53;1.07;;;;;;;;;;5047529;28;20041;-60
2023/01/17 06:03:44;;;;;;;1.67;1.23;;;;;;;;;;5044006;28;20541;-60
2023/01/17 06:06:11;;;;;;;3.63;1.30;;;;;;;;;;5033919;28;20018;-59
2023/01/17 06:08:38;;;;;;;4.87;1.30;;;;;;;;;;5032527;28;20040;-59
2023/01/17 06:11:04;;;;;;;2.70;1.63;;;;;;;;;;5044484;28;20029;-59
2023/01/17 06:13:31;;;;;;;3.87;1.33;;;;;;;;;;5052602;28;20024;-59
2023/01/17 06:16:01;;;;;;;1.37;1.10;;;;;;;;;;5052697;28;20053;-59
2023/01/17 06:18:28;;;;;;;1.43;1.17;;;;;;;;;;5047320;28;20017;-59
2023/01/17 06:20:55;;;;;;;2.80;1.10;;;;;;;;;;5036595;28;20407;-61
2023/01/17 06:23:23;;;;;;;1.90;1.57;;;;;;;;;;5027061;28;20034;-60
2023/01/17 06:25:50;;;;;;;2.93;1.90;;;;;;;;;;5027286;28;20021;-59
2023/01/17 06:28:18;;;;;;;5.83;2.30;;;;;;;;;;5032099;28;20040;-59
2023/01/17 06:30:45;;;;;;;3.27;1.70;;;;;;;;;;5040783;28;20086;-59
2023/01/17 06:33:12;;;;;;;2.67;1.80;;;;;;;;;;5051857;28;20028;-60
2023/01/17 06:35:43;;;;;;;2.07;1.67;;;;;;;;;;5052492;28;20075;-59
2023/01/17 06:38:09;;;;;;;2.43;2.03;;;;;;;;;;5052387;28;20060;-59
2023/01/17 06:40:36;;;;;;;1.13;1.00;;;;;;;;;;5032130;28;20033;-60
2023/01/17 06:43:04;;;;;;;1.20;1.07;;;;;;;;;;5027020;28;20037;-60
2023/01/17 06:45:31;;;;;;;1.90;1.30;;;;;;;;;;5027078;28;20480;-59
2023/01/17 06:47:59;;;;;;;2.20;1.43;;;;;;;;;;5026856;28;20049;-59
2023/01/17 06:50:27;;;;;;;3.40;1.30;;;;;;;;;;5043300;28;20075;-59
2023/01/17 06:52:58;;;;;;;1.00;0.90;;;;;;;;;;5052029;28;20028;-59
2023/01/17 06:55:27;;;;;;;1.10;0.87;;;;;;;;;;5051942;28;20102;-59
2023/01/17 06:57:58;;;;;;;5.43;2.03;;;;;;;;;;5052001;28;20029;-59
2023/01/17 07:00:29;;;;;;;2.40;1.17;;;;;;;;;;5045249;28;20048;-59
2023/01/17 07:02:56;;;;;;;1.87;1.47;;;;;;;;;;5046890;28;20025;-59
2023/01/17 07:05:23;;;;;;;6.60;1.30;;;;;;;;;;5046444;28;20032;-60
2023/01/17 07:07:49;;;;;;;1.43;1.17;;;;;;;;;;5046299;28;20028;-60
2023/01/17 07:10:16;;;;;;;2.50;1.57;;;;;;;;;;5042004;28;20918;-60
2023/01/17 07:12:43;;;;;;;1.53;1.20;;;;;;;;;;5030558;28;20101;-60
2023/01/17 07:15:10;;;;;;;11.33;1.73;;;;;;;;;;5031900;28;20052;-59
2023/01/17 07:17:37;;;;;;;2.07;1.77;;;;;;;;;;5032262;28;20060;-60
2023/01/17 07:20:04;;;;;;;1.33;1.10;;;;;;;;;;5033927;28;20040;-59
2023/01/17 07:22:31;;;;;;;1.67;1.30;;;;;;;;;;5052406;28;20483;-59
2023/01/17 07:24:58;;;;;;;4.43;2.67;;;;;;;;;;5047368;28;20025;-60
2023/01/17 07:27:26;;;;;;;2.13;1.93;;;;;;;;;;5046211;28;20037;-59
2023/01/17 07:29:53;;;;;;;2.93;2.10;;;;;;;;;;5046067;28;20071;-60
2023/01/17 07:32:20;;;;;;;3.20;1.50;;;;;;;;;;5026617;28;20056;-59
2023/01/17 07:34:46;;;;;;;6.83;2.50;;;;;;;;;;5030487;28;20022;-59
2023/01/17 07:37:13;;;;;;;2.57;2.17;;;;;;;;;;5032039;28;20029;-60
2023/01/17 07:39:40;;;;;;;2.03;1.43;;;;;;;;;;5032028;28;20040;-61
2023/01/17 07:42:07;;;;;;;1.73;1.50;;;;;;;;;;5032756;28;20037;-59
2023/01/17 07:44:34;;;;;;;1.83;1.30;;;;;;;;;;5031971;28;20376;-59
2023/01/17 07:47:01;;;;;;;4.33;2.10;;;;;;;;;;5027916;28;20479;-59
2023/01/17 07:49:28;;;;;;;2.13;1.60;;;;;;;;;;5026494;28;20033;-60
2023/01/17 07:51:54;;;;;;;4.13;2.27;;;;;;;;;;5042849;28;20383;-59
2023/01/17 07:54:21;;;;;;;2.83;2.33;;;;;;;;;;5046541;28;20025;-59
2023/01/17 07:56:48;;;;;;;2.93;2.37;;;;;;;;;;5049295;28;20049;-59
2023/01/17 07:59:15;;;;;;;4.80;2.70;;;;;;;;;;5050966;28;20028;-59
2023/01/17 08:01:42;;;;;;;2.83;2.20;;;;;;;;;;5039769;28;20044;-60
2023/01/17 08:04:09;;;;;;;5.70;1.93;;;;;;;;;;5035558;28;20029;-59
2023/01/17 08:06:37;;;;;;;3.00;2.23;;;;;;;;;;5035686;28;20044;-59
2023/01/17 08:09:04;;;;;;;1.90;1.27;;;;;;;;;;5032060;28;20254;-60
2023/01/17 08:11:30;;;;;;;4.77;2.53;;;;;;;;;;5042221;28;20379;-59
2023/01/17 08:13:58;;;;;;;3.43;2.33;;;;;;;;;;5049807;28;20274;-59
2023/01/17 08:16:25;;;;;;;4.10;2.07;;;;;;;;;;5049723;28;20056;-59
2023/01/17 08:18:52;;;;;;;2.90;2.13;;;;;;;;;;5052529;28;20329;-59
2023/01/17 08:21:19;;;;;;;4.53;2.47;;;;;;;;;;5044078;28;20412;-60
2023/01/17 08:23:50;;;;;;;1.87;1.57;;;;;;;;;;5035129;28;20294;-60
2023/01/17 08:26:20;;;;;;;3.40;2.33;;;;;;;;;;5035288;28;20254;-60
2023/01/17 08:29:00;;;;;;;1.50;1.27;;;;;;;;;;5035168;28;20837;-59
2023/01/17 08:31:27;;;;;;;1.57;1.47;;;;;;;;;;5042849;28;20657;-59
2023/01/17 08:33:54;;;;;;;2.20;2.00;;;;;;;;;;5049735;28;20258;-59
2023/01/17 08:36:21;;;;;;;1.43;1.00;;;;;;;;;;5049620;28;20258;-59
2023/01/17 08:38:51;;;;;;;5.63;2.30;;;;;;;;;;5046630;28;20254;-59
2023/01/17 08:41:21;;;;;;;1.87;1.40;;;;;;;;;;5032254;28;20294;-60
2023/01/17 08:43:48;;;;;;;1.87;1.70;;;;;;;;;;5034947;28;20338;-59
2023/01/17 08:46:15;;;;;;;1.83;1.70;;;;;;;;;;5034741;28;20711;-60
2023/01/17 08:48:41;;;;;;;2.77;2.20;;;;;;;;;;5034775;28;20259;-59
2023/01/17 08:51:09;;;;;;;2.83;1.90;;;;;;;;;;5054226;28;20273;-59
2023/01/17 08:53:35;;;;;;;7.10;2.60;;;;;;;;;;5051500;28;20254;-59
2023/01/17 08:56:03;;;;;;;2.93;2.17;;;;;;;;;;5049507;28;20616;-60
2023/01/17 08:58:30;;;;;;;1.57;1.20;;;;;;;;;;5048402;28;20799;-59
2023/01/17 09:01:03;;;;;;;0.87;0.80;;;;;;;;;;5047546;28;20796;-59
2023/01/17 09:03:31;;;;;;;1.43;1.10;;;;;;;;;;5051650;28;20262;-59
2023/01/17 09:06:08;;;;;;;1.47;1.30;;;;;;;;;;5054216;28;20708;-59
2023/01/17 09:08:35;;;;;;;2.60;1.97;;;;;;;;;;5054250;28;20258;-59
2023/01/17 09:11:05;;;;;;;3.50;2.60;;;;;;;;;;5039437;28;20298;-59
2023/01/17 09:13:32;;;;;;;1.07;0.97;;;;;;;;;;5042145;28;20290;-59
2023/01/17 09:15:59;;;;;;;6.03;1.90;;;;;;;;;;5050745;28;20265;-60
2023/01/17 09:18:26;;;;;;;22.87;2.00;;;;;;;;;;5048769;28;20767;-59
2023/01/17 09:20:56;;;;;;;1.60;1.20;;;;;;;;;;5048522;28;20309;-59
2023/01/17 09:23:23;;;;;;;1.87;1.30;;;;;;;;;;5041201;28;20827;-60
2023/01/17 09:25:54;;;;;;;1.97;1.60;;;;;;;;;;5031119;28;20257;-59
2023/01/17 09:28:21;;;;;;;3.17;2.57;;;;;;;;;;5034052;28;20251;-59
2023/01/17 09:30:48;;;;;;;1.10;1.00;;;;;;;;;;5034226;28;20396;-59
2023/01/17 09:33:16;;;;;;;2.17;1.57;;;;;;;;;;5052163;28;20798;-59
2023/01/17 09:35:43;;;;;;;2.13;1.40;;;;;;;;;;5053751;28;20262;-59
2023/01/17 09:38:10;;;;;;;1.37;1.07;;;;;;;;;;5050571;28;20261;-59
2023/01/17 09:40:38;;;;;;;2.80;2.10;;;;;;;;;;5047711;28;20365;-59
2023/01/17 09:43:07;;;;;;;1.80;1.23;;;;;;;;;;5031946;28;20270;-59
2023/01/17 09:45:34;;;;;;;1.87;1.57;;;;;;;;;;5028477;28;20321;-60
2023/01/17 09:48:06;;;;;;;2.70;1.40;;;;;;;;;;5030858;28;20262;-59
2023/01/17 09:50:32;;;;;;;2.20;1.70;;;;;;;;;;5033680;28;20253;-59
2023/01/17 09:53:07;;;;;;;2.07;1.57;;;;;;;;;;5048378;28;20736;-59
2023/01/17 09:55:52;;;;;;;3.97;2.20;;;;;;;;;;5053511;28;20270;-59
2023/01/17 09:58:31;;;;;;;2.13;1.30;;;;;;;;;;5053186;28;20035;-59
2023/01/17 10:01:16;;;;;;;1.73;1.27;;;;;;;;;;5046836;28;20029;-59
2023/01/17 10:03:55;;;;;;;1.15;1.05;;;;;;;;;;5048130;28;20266;-59
2023/01/17 10:06:36;;;;;;;4.10;1.50;;;;;;;;;;5048022;28;20029;-59
2023/01/17 10:09:06;;;;;;;2.20;1.77;;;;;;;;;;5047705;28;20286;-59
2023/01/17 10:11:35;;;;;;;5.47;2.13;;;;;;;;;;5035626;28;20270;-60
2023/01/17 10:14:14;;;;;;;2.23;1.77;;;;;;;;;;5033175;28;20345;-60
2023/01/17 10:16:59;;;;;;;5.83;2.30;;;;;;;;;;5033190;28;20246;-59
2023/01/17 10:19:39;;;;;;;2.58;1.75;;;;;;;;;;5032597;28;20369;-59
2023/01/17 10:22:24;;;;;;;1.40;1.27;;;;;;;;;;5031012;28;20037;-61
2023/01/17 10:25:02;;;;;;;3.25;1.98;;;;;;;;;;5027327;28;20263;-60
2023/01/17 10:27:40;;;;;;;2.83;1.47;;;;;;;;;;5027486;28;20029;-59
2023/01/17 10:30:17;;;;;;;1.83;1.47;;;;;;;;;;5031585;28;20769;-59
2023/01/17 10:32:48;;;;;;;1.97;1.57;;;;;;;;;;5041221;28;20674;-59
2023/01/17 10:35:20;;;;;;;1.40;1.23;;;;;;;;;;5032572;28;20267;-59
2023/01/17 10:37:47;;;;;;;1.50;1.40;;;;;;;;;;5032912;28;20266;-59
2023/01/17 10:40:17;;;;;;;2.10;1.53;;;;;;;;;;5032677;28;20294;-59
2023/01/17 10:43:02;;;;;;;1.60;1.30;;;;;;;;;;5040058;28;20305;-59
2023/01/17 10:45:29;;;;;;;1.35;1.20;;;;;;;;;;5047911;28;20253;-59
2023/01/17 10:48:16;;;;;;;1.30;1.20;;;;;;;;;;5047116;28;20386;-59
2023/01/17 10:50:58;;;;;;;1.90;1.50;;;;;;;;;;5046957;28;20294;-58
2023/01/17 10:53:34;;;;;;;1.20;1.10;;;;;;;;;;5034006;28;20314;-59
2023/01/17 10:56:01;;;;;;;2.53;2.17;;;;;;;;;;5032289;28;20266;-59
2023/01/17 10:58:28;;;;;;;2.70;2.13;;;;;;;;;;5032404;28;20254;-59
2023/01/17 11:00:54;;;;;;;1.47;1.37;;;;;;;;;;5032333;28;20279;-59
2023/01/17 11:03:22;;;;;;;2.67;1.70;;;;;;;;;;5044196;28;20360;-59
2023/01/17 11:06:18;;;;;;;2.50;1.77;;;;;;;;;;5051887;28;20336;-59
2023/01/17 11:08:52;;;;;;;3.63;2.20;;;;;;;;;;5033746;28;20621;-59
2023/01/17 11:11:20;;;;;;;1.27;1.00;;;;;;;;;;5046785;28;20386;-58
2023/01/17 11:13:48;;;;;;;2.27;1.83;;;;;;;;;;5031337;28;20271;-59
2023/01/17 11:16:27;;;;;;;3.23;2.73;;;;;;;;;;5027253;28;21648;-58
2023/01/17 11:19:12;;;;;;;2.37;2.00;;;;;;;;;;5032198;28;20266;-59
2023/01/17 11:21:39;;;;;;;3.50;2.67;;;;;;;;;;5032232;28;20270;-59
2023/01/17 11:24:11;;;;;;;3.63;2.63;;;;;;;;;;5049337;28;20075;-58
2023/01/17 11:26:38;;;;;;;2.10;1.83;;;;;;;;;;5052098;28;20250;-58
2023/01/17 11:29:23;;;;;;;2.10;1.90;;;;;;;;;;5049754;28;20335;-59
2023/01/17 11:31:50;;;;;;;1.65;1.48;;;;;;;;;;5046650;28;20257;-58
2023/01/17 11:34:17;;;;;;;4.10;2.03;;;;;;;;;;5027482;28;20075;-58
2023/01/17 11:36:45;;;;;;;2.27;1.87;;;;;;;;;;5029294;28;20250;-58
2023/01/17 11:39:17;;;;;;;1.80;1.63;;;;;;;;;;5032765;28;20338;-59
2023/01/17 11:41:46;;;;;;;1.57;1.40;;;;;;;;;;5036132;28;20274;-59
2023/01/17 11:44:25;;;;;;;2.00;1.53;;;;;;;;;;5053613;28;20327;-58
2023/01/17 11:47:10;;;;;;;2.53;1.97;;;;;;;;;;5055816;28;20613;-59
2023/01/17 11:49:37;;;;;;;1.77;1.50;;;;;;;;;;5055931;28;20316;-59
2023/01/17 11:52:23;;;;;;;3.40;2.63;;;;;;;;;;5051699;28;20032;-59
2023/01/17 11:54:50;;;;;;;3.25;2.20;;;;;;;;;;5030211;28;20259;-59
2023/01/17 11:57:32;;;;;;;8.13;1.63;;;;;;;;;;5030191;28;20148;-59
2023/01/17 12:00:03;;;;;;;3.27;2.10;;;;;;;;;;5030236;28;20318;-59
2023/01/17 12:02:33;;;;;;;2.00;1.47;;;;;;;;;;5043032;28;20266;-59
2023/01/17 12:04:59;;;;;;;6.73;2.53;;;;;;;;;;5055481;28;20272;-58
2023/01/17 12:07:46;;;;;;;1.57;1.40;;;;;;;;;;5055229;28;20303;-59
2023/01/17 12:10:15;;;;;;;4.77;2.70;;;;;;;;;;5055234;28;20281;-59
2023/01/17 12:15:28;;;;;;;1.45;1.35;;;;;;;;;;5029498;28;20342;-59
2023/01/17 12:18:13;;;;;;;2.10;1.63;;;;;;;;;;5030111;28;20034;-59
2023/01/17 12:20:43;;;;;;;4.47;2.70;;;;;;;;;;5029816;28;20723;-59
2023/01/17 12:23:16;;;;;;;4.17;3.00;;;;;;;;;;5049212;28;20266;-59
2023/01/17 12:25:54;;;;;;;1.67;1.43;;;;;;;;;;5054789;28;20262;-59
2023/01/17 12:28:38;;;;;;;1.83;1.37;;;;;;;;;;5055051;28;20264;-59
2023/01/17 12:31:11;;;;;;;2.17;1.87;;;;;;;;;;5053830;28;20763;-59
2023/01/17 12:33:44;;;;;;;2.97;2.23;;;;;;;;;;5035221;28;20266;-58
2023/01/17 12:36:34;;;;;;;2.97;2.27;;;;;;;;;;5032196;28;20737;-60
2023/01/17 12:39:06;;;;;;;5.77;3.33;;;;;;;;;;5021703;28;20266;-59
2023/01/17 12:41:37;;;;;;;1.97;1.77;;;;;;;;;;5033470;28;20760;-59
2023/01/17 12:44:04;;;;;;;3.60;2.63;;;;;;;;;;5049277;28;20262;-59
2023/01/17 12:46:31;;;;;;;3.13;2.03;;;;;;;;;;5052416;28;20466;-58
2023/01/17 12:49:16;;;;;;;2.73;2.50;;;;;;;;;;5054609;28;20589;-59
2023/01/17 12:51:44;;;;;;;4.40;2.92;;;;;;;;;;5049114;28;20255;-58
2023/01/17 12:54:33;;;;;;;12.50;3.00;;;;;;;;;;5034748;28;20029;-59
2023/01/17 12:57:09;;;;;;;4.63;3.20;;;;;;;;;;5034682;28;20273;-59
2023/01/17 12:59:47;;;;;;;3.40;2.75;;;;;;;;;;5029344;28;20294;-59
2023/01/17 13:02:32;;;;;;;4.07;3.10;;;;;;;;;;5034364;28;20064;-58
2023/01/17 13:05:04;;;;;;;3.67;2.97;;;;;;;;;;5049020;28;20688;-59
2023/01/17 13:07:51;;;;;;;2.17;1.50;;;;;;;;;;5049309;28;20037;-58
2023/01/17 13:10:27;;;;;;;3.57;2.40;;;;;;;;;;5053894;28;20612;-58
2023/01/17 13:12:56;;;;;;;3.40;2.53;;;;;;;;;;5047704;28;20761;-58
2023/01/17 13:15:28;;;;;;;3.23;2.27;;;;;;;;;;5034216;28;20262;-59
2023/01/17 13:17:55;;;;;;;3.40;2.70;;;;;;;;;;5044493;28;20270;-59
2023/01/17 13:20:25;;;;;;;2.57;1.90;;;;;;;;;;5051875;28;20329;-59
2023/01/17 13:22:53;;;;;;;5.17;3.90;;;;;;;;;;5048473;28;20615;-58
2023/01/17 13:25:30;;;;;;;7.33;4.00;;;;;;;;;;5048610;28;20791;-58
2023/01/17 13:28:02;;;;;;;6.53;3.87;;;;;;;;;;5038143;28;20621;-58
2023/01/17 13:30:42;;;;;;;3.03;2.63;;;;;;;;;;5030758;28;20776;-58
2023/01/17 13:33:27;;;;;;;2.67;2.43;;;;;;;;;;5034016;28;20349;-58
2023/01/17 13:35:59;;;;;;;3.08;2.72;;;;;;;;;;5034128;28;20331;-58
2023/01/17 13:38:30;;;;;;;2.53;1.77;;;;;;;;;;5047463;28;20032;-58
2023/01/17 13:41:20;;;;;;;10.23;3.73;;;;;;;;;;5051989;28;20290;-58
2023/01/17 13:46:51;;;;;;;6.85;3.47;;;;;;;;;;5047104;28;20269;-58
2023/01/17 13:49:22;;;;;;;4.30;2.90;;;;;;;;;;5026571;28;20033;-58
2023/01/17 13:52:10;;;;;;;3.53;3.13;;;;;;;;;;5026572;28;20334;-59
2023/01/17 13:54:51;;;;;;;5.70;4.03;;;;;;;;;;5031187;28;20592;-58
2023/01/17 13:57:35;;;;;;;3.27;2.63;;;;;;;;;;5035187;28;20266;-58
2023/01/17 14:00:27;;;;;;;18.80;2.57;;;;;;;;;;5052604;28;20823;-58
2023/01/17 14:02:54;;;;;;;22.67;5.40;;;;;;;;;;5022888;28;20333;-58
2023/01/17 14:05:22;;;;;;;7.87;3.60;;;;;;;;;;5048954;28;20262;-58
2023/01/17 14:07:55;;;;;;;16.33;4.30;;;;;;;;;;5039514;28;20267;-58
2023/01/17 14:10:21;;;;;;;17.50;3.47;;;;;;;;;;5027752;28;20283;-59
2023/01/17 14:12:49;;;;;;;4.43;3.13;;;;;;;;;;5027106;28;21778;-59
2023/01/17 14:15:21;;;;;;;6.80;3.23;;;;;;;;;;5030482;28;20397;-59
2023/01/17 14:17:58;;;;;;;31.23;3.60;;;;;;;;;;5040263;28;20268;-59
2023/01/17 14:20:29;;;;;;;7.50;3.10;;;;;;;;;;5052831;28;20286;-59
2023/01/17 14:22:57;;;;;;;12.60;3.60;;;;;;;;;;5052615;28;20285;-59
2023/01/17 14:25:25;;;;;;;4.87;3.40;;;;;;;;;;5052859;28;20262;-59
2023/01/17 14:27:55;;;;;;;4.67;3.33;;;;;;;;;;5037967;28;20341;-59
2023/01/17 14:30:22;;;;;;;5.50;3.23;;;;;;;;;;5027286;28;20035;-59
2023/01/17 14:33:00;;;;;;;6.07;3.30;;;;;;;;;;5027372;28;20029;-58
2023/01/17 14:35:28;;;;;;;6.37;2.77;;;;;;;;;;5026853;28;20033;-59
2023/01/17 14:38:04;;;;;;;6.93;3.63;;;;;;;;;;5040749;28;20032;-59
2023/01/17 14:40:32;;;;;;;3.20;2.07;;;;;;;;;;5052496;28;20033;-59
2023/01/17 14:43:12;;;;;;;11.37;3.03;;;;;;;;;;5052729;28;20074;-59
2023/01/17 14:45:39;;;;;;;3.27;1.73;;;;;;;;;;5052141;28;20032;-59
2023/01/17 14:48:07;;;;;;;6.30;4.13;;;;;;;;;;5040699;28;20380;-59
2023/01/17 14:50:38;;;;;;;3.17;2.80;;;;;;;;;;5027363;28;20116;-59
2023/01/17 14:53:14;;;;;;;6.43;2.87;;;;;;;;;;5026865;28;20033;-59
2023/01/17 14:55:55;;;;;;;3.93;2.50;;;;;;;;;;5026960;28;20491;-59
2023/01/17 14:58:23;;;;;;;9.17;3.73;;;;;;;;;;5039778;28;20029;-59
2023/01/17 15:00:51;;;;;;;4.03;3.33;;;;;;;;;;5045919;28;20033;-59
2023/01/17 15:03:18;;;;;;;5.03;2.67;;;;;;;;;;5032460;28;20046;-59
2023/01/17 15:05:46;;;;;;;5.90;3.73;;;;;;;;;;5032349;28;20494;-59
2023/01/17 15:08:14;;;;;;;5.00;3.37;;;;;;;;;;5032258;28;20021;-59
2023/01/17 15:10:48;;;;;;;5.33;3.20;;;;;;;;;;5034689;28;20021;-59
2023/01/17 15:13:17;;;;;;;6.27;3.57;;;;;;;;;;5046800;28;20104;-59
2023/01/17 15:15:44;;;;;;;4.50;3.00;;;;;;;;;;5041398;28;20037;-59
2023/01/17 15:18:13;;;;;;;4.63;3.60;;;;;;;;;;5026899;28;20036;-60
2023/01/17 15:20:47;;;;;;;4.23;2.30;;;;;;;;;;5026968;28;20029;-59
2023/01/17 15:23:19;;;;;;;8.77;3.40;;;;;;;;;;5031904;28;20532;-59
2023/01/17 15:25:49;;;;;;;5.27;3.27;;;;;;;;;;5036242;28;20063;-60
2023/01/17 15:28:16;;;;;;;10.97;3.87;;;;;;;;;;5052070;28;20070;-59
2023/01/17 15:31:01;;;;;;;2.87;2.20;;;;;;;;;;5052125;28;20100;-60
2023/01/17 15:33:27;;;;;;;3.92;2.85;;;;;;;;;;5050669;28;20393;-59
2023/01/17 15:36:01;;;;;;;6.17;3.00;;;;;;;;;;5040977;28;20026;-60
2023/01/17 15:38:28;;;;;;;3.47;2.30;;;;;;;;;;5026471;28;20103;-60
2023/01/17 15:40:55;;;;;;;4.00;2.43;;;;;;;;;;5026552;28;20029;-60
2023/01/17 15:43:24;;;;;;;9.67;3.47;;;;;;;;;;5027434;28;20030;-59
2023/01/17 15:45:56;;;;;;;5.33;3.57;;;;;;;;;;5036029;28;20017;-60
2023/01/17 15:48:39;;;;;;;4.67;3.23;;;;;;;;;;5049374;28;20025;-60
2023/01/17 15:51:06;;;;;;;5.07;3.30;;;;;;;;;;5051467;28;20033;-60
2023/01/17 15:53:36;;;;;;;4.50;3.40;;;;;;;;;;5051811;28;20082;-59
2023/01/17 15:56:26;;;;;;;3.37;2.30;;;;;;;;;;5049398;28;20033;-60
2023/01/17 15:58:52;;;;;;;4.37;3.23;;;;;;;;;;5024910;28;20052;-60
2023/01/17 16:01:28;;;;;;;3.53;2.70;;;;;;;;;;5026361;28;20107;-59
2023/01/17 16:03:55;;;;;;;3.87;2.87;;;;;;;;;;5026481;28;20022;-60
2023/01/17 16:06:45;;;;;;;3.60;2.60;;;;;;;;;;5029108;28;20100;-60
2023/01/17 16:09:19;;;;;;;6.10;3.63;;;;;;;;;;5032723;28;20022;-60
2023/01/17 16:11:46;;;;;;;7.60;4.60;;;;;;;;;;5031777;28;20021;-59
2023/01/17 16:14:13;;;;;;;3.30;2.43;;;;;;;;;;5031462;28;20025;-60
2023/01/17 16:16:39;;;;;;;10.30;3.97;;;;;;;;;;5031695;28;20056;-60
2023/01/17 16:19:06;;;;;;;4.20;3.10;;;;;;;;;;5031005;28;20032;-60
2023/01/17 16:21:33;;;;;;;10.00;4.43;;;;;;;;;;5044426;28;20116;-60
2023/01/17 16:24:01;;;;;;;7.17;4.87;;;;;;;;;;5049964;28;20017;-60
2023/01/17 16:26:28;;;;;;;17.10;3.83;;;;;;;;;;5049700;28;20035;-60
2023/01/17 16:28:54;;;;;;;4.97;3.73;;;;;;;;;;5052846;28;20071;-60
2023/01/17 16:31:21;;;;;;;8.27;4.33;;;;;;;;;;5053382;28;20383;-60